This is the latest recevied weather packets stored in our database for station/object IZ5MMH-14. If no packets are shown the sender has not sent any weather packets the latest 10 day(s).
| Time | Temp. | Humidity | Pressure | Rain* | Wind** | Luminosity | Snow |
|---|---|---|---|---|---|---|---|
| 1777597208 | 11.67° C | 42% | 1022.4 hPa | - | - | - | - |
| 1777596608 | 11.67° C | 42% | 1022.5 hPa | - | - | - | - |
| 1777596008 | 12.22° C | 42% | 1022.4 hPa | - | - | - | - |
| 1777595408 | 12.22° C | 42% | 1022.4 hPa | - | - | - | - |
| 1777594808 | 12.22° C | 42% | 1022.4 hPa | - | - | - | - |
| 1777594209 | 12.22° C | 41% | 1022.2 hPa | - | - | - | - |
| 1777593608 | 12.22° C | 44% | 1022.2 hPa | - | - | - | - |
| 1777593008 | 12.22° C | 45% | 1022 hPa | - | - | - | - |
| 1777592408 | 12.78° C | 45% | 1021.9 hPa | - | - | - | - |
| 1777591809 | 12.78° C | 45% | 1022 hPa | - | - | - | - |
| 1777591208 | 13.33° C | 44% | 1021.9 hPa | - | - | - | - |
| 1777590608 | 13.33° C | 44% | 1021.8 hPa | - | - | - | - |
| 1777590008 | 13.33° C | 44% | 1021.8 hPa | - | - | - | - |
| 1777589408 | 14.44° C | 42% | 1021.7 hPa | - | - | - | - |
| 1777588808 | 14.44° C | 44% | 1021.7 hPa | - | - | - | - |
| 1777588208 | 14.44° C | 45% | 1021.6 hPa | - | - | - | - |
| 1777587608 | 14.44° C | 46% | 1021.6 hPa | - | - | - | - |
| 1777586399 | 14.44° C | 46% | 1021.5 hPa | - | - | - | - |
| 1777585799 | 15° C | 46% | 1021.3 hPa | - | - | - | - |
| 1777585199 | 15.56° C | 44% | 1021.3 hPa | - | - | - | - |
| 1777584599 | 15.56° C | 44% | 1021.3 hPa | - | - | - | - |
| 1777583999 | 15.56° C | 44% | 1021.3 hPa | - | - | - | - |
| 1777583399 | 15.56° C | 43% | 1021.2 hPa | - | - | - | - |
| 1777582799 | 16.11° C | 41% | 1021.1 hPa | - | - | - | - |
| 1777582199 | 16.11° C | 41% | 1021.2 hPa | - | - | - | - |
* Rain since midnight (hover to see other rain measurements)
** Current wind speed in m/s (hover to see current wind gust speed)